createdAt,value
2019-04-27T00:02:30.800Z,6.10
2019-04-27T00:05:03.282Z,4.00
2019-04-27T00:07:34.205Z,4.00
2019-04-27T00:10:08.963Z,5.10
2019-04-27T00:12:38.140Z,3.60
2019-04-27T00:15:08.907Z,4.43
2019-04-27T00:17:49.157Z,4.10
2019-04-27T00:20:24.037Z,4.73
2019-04-27T00:23:00.722Z,4.73
2019-04-27T00:25:29.907Z,5.50
2019-04-27T00:27:59.114Z,4.90
2019-04-27T00:30:28.336Z,4.50
2019-04-27T00:32:57.644Z,5.80
2019-04-27T00:35:28.556Z,5.00
2019-04-27T00:37:59.491Z,5.13
2019-04-27T00:40:39.389Z,4.07
2019-04-27T00:43:08.688Z,4.27
2019-04-27T00:45:37.992Z,6.03
2019-04-27T00:48:07.385Z,3.37
2019-04-27T00:50:36.620Z,4.17
2019-04-27T00:53:05.815Z,5.10
2019-04-27T00:55:36.689Z,5.63
2019-04-27T00:58:16.557Z,3.90
2019-04-27T01:00:47.493Z,4.00
2019-04-27T01:03:24.284Z,3.97
2019-04-27T01:05:53.512Z,4.37
2019-04-27T01:08:22.996Z,4.53
2019-04-27T01:10:53.774Z,4.20
2019-04-27T01:13:23.431Z,4.87
2019-04-27T01:15:54.095Z,6.40
2019-04-27T01:18:24.531Z,4.20
2019-04-27T01:20:53.769Z,4.13
2019-04-27T01:23:22.972Z,3.80
2019-04-27T01:26:10.135Z,4.30
2019-04-27T01:28:41.540Z,4.67
2019-04-27T01:31:12.407Z,4.53
2019-04-27T01:33:41.609Z,4.17
2019-04-27T01:36:10.884Z,3.83
2019-04-27T01:38:41.174Z,4.27
2019-04-27T01:41:10.458Z,5.00
2019-04-27T01:43:39.687Z,4.93
2019-04-27T01:46:09.963Z,4.00
2019-04-27T01:48:39.300Z,4.37
2019-04-27T01:51:09.227Z,4.10
2019-04-27T01:53:39.064Z,4.43
2019-04-27T01:56:09.265Z,4.37
2019-04-27T01:58:39.246Z,4.30
2019-04-27T02:01:18.735Z,5.17
2019-04-27T02:03:49.769Z,4.33
2019-04-27T02:06:20.776Z,4.37
2019-04-27T02:08:50.208Z,4.53
2019-04-27T02:11:19.431Z,4.83
2019-04-27T02:13:48.750Z,4.20
2019-04-27T02:16:19.544Z,4.57
2019-04-27T02:18:48.899Z,5.00
2019-04-27T02:21:19.275Z,5.30
2019-04-27T02:23:49.680Z,5.73
2019-04-27T02:26:21.425Z,7.40
2019-04-27T02:29:08.689Z,8.00
2019-04-27T02:31:50.043Z,10.13
2019-04-27T02:34:22.155Z,11.80
2019-04-27T02:36:51.804Z,12.07
2019-04-27T02:39:21.711Z,13.20
2019-04-27T02:41:51.892Z,13.00
2019-04-27T02:44:35.232Z,13.20
2019-04-27T02:47:04.985Z,14.33
2019-04-27T02:49:34.216Z,14.17
2019-04-27T02:52:05.132Z,14.57
2019-04-27T02:54:34.376Z,13.50
2019-04-27T02:57:03.575Z,13.40
2019-04-27T02:59:32.808Z,14.27
2019-04-27T03:02:03.655Z,12.70
2019-04-27T03:04:32.952Z,12.43
2019-04-27T03:07:02.159Z,12.50
2019-04-27T03:09:31.462Z,13.57
2019-04-27T03:12:02.161Z,11.80
2019-04-27T03:14:50.606Z,12.47
2019-04-27T03:17:39.517Z,12.73
2019-04-27T03:20:26.950Z,13.40
2019-04-27T03:23:00.076Z,13.43
2019-04-27T03:25:32.632Z,11.37
2019-04-27T03:28:03.012Z,12.07
2019-04-27T03:30:36.133Z,12.87
2019-04-27T03:33:04.617Z,11.93
2019-04-27T03:35:36.620Z,12.70
2019-04-27T03:38:05.015Z,13.50
2019-04-27T03:40:34.471Z,12.23
2019-04-27T03:43:05.611Z,11.93
2019-04-27T03:45:34.824Z,12.00
2019-04-27T03:48:04.125Z,12.37
2019-04-27T03:50:50.410Z,11.70
2019-04-27T03:53:23.112Z,12.63
2019-04-27T03:55:53.144Z,13.10
2019-04-27T03:58:25.148Z,11.87
2019-04-27T04:00:54.842Z,11.80
2019-04-27T04:03:24.303Z,12.13
2019-04-27T04:05:53.725Z,12.87
2019-04-27T04:08:23.177Z,13.27
2019-04-27T04:10:54.107Z,13.47
2019-04-27T04:13:34.230Z,13.90
2019-04-27T04:16:10.858Z,13.47
2019-04-27T04:19:00.459Z,13.57
2019-04-27T04:21:29.855Z,13.90
2019-04-27T04:24:00.890Z,13.53
2019-04-27T04:26:33.054Z,12.93
2019-04-27T04:29:01.464Z,12.13
2019-04-27T04:31:33.269Z,13.27
2019-04-27T04:34:01.598Z,13.70
2019-04-27T04:36:30.818Z,13.93
2019-04-27T04:39:00.609Z,12.27
2019-04-27T04:41:51.029Z,11.77
2019-04-27T04:44:22.241Z,12.27
2019-04-27T04:46:55.757Z,13.57
2019-04-27T04:49:24.991Z,14.90
2019-04-27T04:51:54.199Z,15.00
2019-04-27T04:54:24.769Z,14.80
2019-04-27T04:56:54.251Z,14.50
2019-04-27T04:59:23.780Z,13.83
2019-04-27T05:01:53.025Z,13.57
2019-04-27T05:04:22.227Z,13.43
2019-04-27T05:06:51.476Z,14.07
2019-04-27T05:09:20.668Z,13.70
2019-04-27T05:11:49.901Z,14.70
2019-04-27T05:14:19.943Z,14.07
2019-04-27T05:16:50.493Z,13.10
2019-04-27T05:19:19.697Z,13.63
2019-04-27T05:21:49.212Z,12.70
2019-04-27T05:24:19.244Z,13.60
2019-04-27T05:26:48.771Z,12.13
2019-04-27T05:29:19.147Z,12.10
2019-04-27T05:31:49.115Z,13.23
2019-04-27T05:34:19.660Z,12.90
2019-04-27T05:36:52.404Z,12.80
2019-04-27T05:39:25.076Z,12.43
2019-04-27T05:41:51.050Z,13.60
2019-04-27T05:44:45.721Z,12.50
2019-04-27T05:47:13.223Z,11.70
2019-04-27T05:49:44.568Z,13.50
2019-04-27T05:52:29.784Z,12.90
2019-04-27T05:54:59.555Z,13.30
2019-04-27T05:57:31.442Z,13.70
2019-04-27T06:00:02.037Z,11.43
2019-04-27T06:02:31.209Z,11.70
2019-04-27T06:05:00.446Z,12.83
2019-04-27T06:07:29.947Z,11.70
2019-04-27T06:09:59.889Z,12.23
2019-04-27T06:12:29.794Z,10.87
2019-04-27T06:14:59.914Z,11.30
2019-04-27T06:17:30.090Z,11.83
2019-04-27T06:19:59.786Z,11.67
2019-04-27T06:22:29.414Z,11.23
2019-04-27T06:25:00.118Z,10.13
2019-04-27T06:27:30.555Z,11.47
2019-04-27T06:30:00.403Z,11.83
2019-04-27T06:32:29.794Z,10.13
2019-04-27T06:34:59.334Z,10.90
2019-04-27T06:37:29.397Z,10.83
2019-04-27T06:39:59.765Z,9.80
2019-04-27T06:42:29.843Z,9.17
2019-04-27T06:45:00.371Z,9.03
2019-04-27T06:47:29.940Z,9.77
2019-04-27T06:49:59.170Z,7.97
2019-04-27T06:52:29.157Z,8.13
2019-04-27T06:55:00.478Z,7.30
2019-04-27T06:57:29.589Z,10.30
2019-04-27T06:59:59.128Z,9.60
2019-04-27T07:02:29.061Z,9.87
2019-04-27T07:04:59.696Z,9.90
2019-04-27T07:07:29.496Z,10.83
2019-04-27T07:09:59.205Z,13.03
2019-04-27T07:12:28.916Z,8.57
2019-04-27T07:14:59.266Z,6.77
2019-04-27T07:17:29.070Z,5.87
2019-04-27T07:19:59.430Z,5.40
2019-04-27T07:22:30.111Z,5.70
2019-04-27T07:24:59.302Z,6.40
2019-04-27T07:27:29.188Z,5.00
2019-04-27T07:30:01.495Z,5.13
2019-04-27T07:32:31.880Z,5.80
2019-04-27T07:35:01.127Z,5.90
2019-04-27T07:37:30.432Z,6.10
2019-04-27T07:39:59.634Z,7.53
2019-04-27T07:42:31.564Z,6.80
2019-04-27T07:45:03.948Z,6.80
2019-04-27T07:47:33.227Z,7.33
2019-04-27T07:50:02.627Z,6.77
2019-04-27T07:52:32.127Z,7.90
2019-04-27T07:55:01.397Z,7.90
2019-04-27T07:57:30.640Z,7.50
2019-04-27T07:59:59.870Z,7.73
2019-04-27T08:02:30.464Z,7.47
2019-04-27T08:04:59.731Z,7.60
2019-04-27T08:07:29.221Z,8.13
2019-04-27T08:10:01.486Z,7.80
2019-04-27T08:12:30.667Z,8.00
2019-04-27T08:15:00.116Z,8.00
2019-04-27T08:17:30.227Z,8.20
2019-04-27T08:19:59.740Z,8.70
2019-04-27T08:22:30.251Z,9.13
2019-04-27T08:24:59.637Z,9.20
2019-04-27T08:27:46.847Z,9.37
2019-04-27T08:30:26.774Z,8.90
2019-04-27T08:32:59.254Z,8.07
2019-04-27T08:35:31.093Z,7.20
2019-04-27T08:37:59.555Z,7.73
2019-04-27T08:40:29.326Z,6.60
2019-04-27T08:42:59.221Z,7.13
2019-04-27T08:45:29.275Z,7.33
2019-04-27T08:47:59.489Z,6.40
2019-04-27T08:50:28.967Z,5.10
2019-04-27T08:52:58.195Z,5.97
2019-04-27T08:55:27.412Z,5.73
2019-04-27T08:57:56.638Z,5.13
2019-04-27T09:00:25.841Z,5.00
2019-04-27T09:02:55.070Z,5.40
2019-04-27T09:05:28.967Z,6.40
2019-04-27T09:08:18.973Z,5.33
2019-04-27T09:11:06.687Z,5.30
2019-04-27T09:13:43.687Z,4.67
2019-04-27T09:16:29.668Z,5.17
2019-04-27T09:19:00.618Z,5.33
2019-04-27T09:21:31.464Z,4.03
2019-04-27T09:24:00.924Z,5.93
2019-04-27T09:26:30.154Z,3.73
2019-04-27T09:28:59.598Z,4.83
2019-04-27T09:31:29.176Z,3.00
2019-04-27T09:33:58.410Z,3.43
2019-04-27T09:36:27.715Z,5.00
2019-04-27T09:38:56.920Z,3.17
2019-04-27T09:41:26.293Z,4.87
2019-04-27T09:43:55.902Z,4.40
2019-04-27T09:46:25.989Z,3.53
2019-04-27T09:48:56.535Z,3.73
2019-04-27T09:51:25.814Z,4.03
2019-04-27T09:53:56.342Z,3.03
2019-04-27T09:56:26.146Z,3.80
2019-04-27T09:58:57.098Z,4.47
2019-04-27T10:01:28.779Z,4.77
2019-04-27T10:03:57.466Z,4.60
2019-04-27T10:06:29.813Z,4.20
2019-04-27T10:08:57.763Z,3.63
2019-04-27T10:11:27.423Z,3.07
2019-04-27T10:13:56.654Z,4.07
2019-04-27T10:16:25.860Z,3.53
2019-04-27T10:18:55.082Z,4.40
2019-04-27T10:21:24.286Z,4.90
2019-04-27T10:23:53.510Z,3.80
2019-04-27T10:26:22.787Z,4.03
2019-04-27T10:28:52.058Z,4.87
2019-04-27T10:31:21.303Z,4.47
2019-04-27T10:33:50.528Z,6.50
2019-04-27T10:36:21.373Z,4.10
2019-04-27T10:38:50.597Z,6.20
2019-04-27T10:41:19.799Z,5.07
2019-04-27T10:43:49.040Z,3.53
2019-04-27T10:46:18.572Z,2.90
2019-04-27T10:48:47.799Z,6.73
2019-04-27T10:51:17.003Z,4.80
2019-04-27T10:53:46.235Z,5.00
2019-04-27T10:56:15.464Z,3.07
2019-04-27T10:58:45.677Z,3.20
2019-04-27T11:01:16.404Z,3.37
2019-04-27T11:03:53.468Z,4.87
2019-04-27T11:06:39.383Z,3.30
2019-04-27T11:09:11.215Z,2.93
2019-04-27T11:11:40.927Z,3.53
2019-04-27T11:14:10.162Z,4.37
2019-04-27T11:16:39.363Z,3.60
2019-04-27T11:19:08.680Z,7.13
2019-04-27T11:21:37.946Z,5.07
2019-04-27T11:24:07.256Z,5.17
2019-04-27T11:26:36.485Z,6.30
2019-04-27T11:29:06.835Z,4.70
2019-04-27T11:31:36.426Z,3.57
2019-04-27T11:34:06.722Z,5.80
2019-04-27T11:36:38.034Z,5.33
2019-04-27T11:39:11.811Z,4.57
2019-04-27T11:41:41.041Z,6.87
2019-04-27T11:44:10.267Z,3.03
2019-04-27T11:46:39.644Z,2.50
2019-04-27T11:49:08.864Z,3.37
2019-04-27T11:51:38.068Z,2.83
2019-04-27T11:54:07.303Z,2.50
2019-04-27T11:56:36.501Z,1.90
2019-04-27T11:59:07.069Z,2.00
2019-04-27T12:01:36.744Z,2.20
2019-04-27T12:04:07.039Z,1.43
2019-04-27T12:06:36.264Z,1.43
2019-04-27T12:09:06.808Z,1.30
2019-04-27T12:11:36.712Z,1.10
2019-04-27T12:14:06.250Z,1.10
2019-04-27T12:16:36.179Z,1.80
2019-04-27T12:19:06.528Z,1.30
2019-04-27T12:21:36.265Z,1.00
2019-04-27T12:24:06.687Z,0.90
2019-04-27T12:26:49.597Z,0.90
2019-04-27T12:29:20.432Z,1.50
2019-04-27T12:31:49.655Z,1.30
2019-04-27T12:34:18.864Z,1.27
2019-04-27T12:36:48.093Z,1.70
2019-04-27T12:39:17.298Z,1.20
2019-04-27T12:41:46.528Z,1.13
2019-04-27T12:44:16.110Z,1.13
2019-04-27T12:46:45.489Z,1.00
2019-04-27T12:49:16.136Z,1.10
2019-04-27T12:51:45.678Z,1.17
2019-04-27T12:54:26.195Z,9.17
2019-04-27T12:57:13.488Z,1.50
2019-04-27T12:59:56.692Z,1.27
2019-04-27T13:02:28.956Z,2.50
2019-04-27T13:04:58.188Z,0.80
2019-04-27T13:07:27.482Z,1.30
2019-04-27T13:09:56.958Z,1.23
2019-04-27T13:12:27.297Z,2.10
2019-04-27T13:14:56.703Z,0.90
2019-04-27T13:17:26.522Z,0.80
2019-04-27T13:19:56.174Z,2.63
2019-04-27T13:22:25.551Z,1.10
2019-04-27T13:24:56.477Z,3.47
2019-04-27T13:27:26.977Z,1.80
2019-04-27T13:29:57.500Z,1.63
2019-04-27T13:32:27.941Z,2.10
2019-04-27T13:34:57.171Z,1.27
2019-04-27T13:37:34.095Z,3.33
2019-04-27T13:40:09.435Z,2.07
2019-04-27T13:42:41.595Z,1.83
2019-04-27T13:45:12.512Z,2.17
2019-04-27T13:47:50.735Z,2.50
2019-04-27T13:50:21.653Z,1.50
2019-04-27T13:52:50.880Z,2.20
2019-04-27T13:55:20.152Z,2.60
2019-04-27T13:57:50.321Z,0.90
2019-04-27T14:00:20.920Z,2.70
2019-04-27T14:02:50.165Z,1.10
2019-04-27T14:05:23.955Z,1.87
2019-04-27T14:07:51.840Z,2.80
2019-04-27T14:10:21.043Z,2.00
2019-04-27T14:12:50.284Z,1.50
2019-04-27T14:15:19.495Z,2.33
2019-04-27T14:17:49.963Z,1.40
2019-04-27T14:20:19.442Z,1.90
2019-04-27T14:22:49.099Z,1.53
2019-04-27T14:25:18.310Z,2.40
2019-04-27T14:27:48.872Z,5.13
2019-04-27T14:30:18.515Z,2.50
2019-04-27T14:32:47.750Z,6.30
2019-04-27T14:35:18.146Z,2.50
2019-04-27T14:37:48.360Z,1.93
2019-04-27T14:40:18.601Z,2.77
2019-04-27T14:42:48.440Z,7.30
2019-04-27T14:45:19.630Z,1.40
2019-04-27T14:47:49.544Z,3.63
2019-04-27T14:50:21.611Z,1.43
2019-04-27T14:52:51.789Z,2.50
2019-04-27T14:55:21.024Z,1.53
2019-04-27T14:57:50.225Z,6.03
2019-04-27T15:00:20.763Z,1.50
2019-04-27T15:02:50.034Z,2.43
2019-04-27T15:05:19.266Z,1.50
2019-04-27T15:07:48.498Z,4.57
2019-04-27T15:10:17.767Z,2.27
2019-04-27T15:12:47.001Z,1.67
2019-04-27T15:15:16.442Z,1.47
2019-04-27T15:17:45.677Z,1.57
2019-04-27T15:20:16.593Z,1.67
2019-04-27T15:22:50.818Z,1.30
2019-04-27T15:25:20.151Z,1.90
2019-04-27T15:27:54.097Z,3.00
2019-04-27T15:30:25.673Z,2.00
2019-04-27T15:32:57.663Z,2.47
2019-04-27T15:35:28.552Z,2.87
2019-04-27T15:38:04.955Z,4.27
2019-04-27T15:40:54.428Z,5.90
2019-04-27T15:43:27.319Z,1.47
2019-04-27T15:45:57.778Z,1.90
2019-04-27T15:48:30.591Z,2.70
2019-04-27T15:51:02.867Z,3.77
2019-04-27T15:53:29.112Z,3.13
2019-04-27T15:56:00.995Z,2.10
2019-04-27T15:58:29.591Z,1.47
2019-04-27T16:01:02.404Z,3.73
2019-04-27T16:03:31.321Z,3.43
2019-04-27T16:06:03.330Z,2.83
2019-04-27T16:08:31.653Z,1.80
2019-04-27T16:11:02.243Z,1.47
2019-04-27T16:13:33.187Z,1.20
2019-04-27T16:16:02.380Z,2.90
2019-04-27T16:18:32.660Z,3.13
2019-04-27T16:21:02.920Z,1.43
2019-04-27T16:23:39.895Z,1.17
2019-04-27T16:26:11.159Z,2.00
2019-04-27T16:28:38.579Z,1.50
2019-04-27T16:31:07.779Z,3.00
2019-04-27T16:33:37.003Z,1.53
2019-04-27T16:36:07.217Z,1.50
2019-04-27T16:38:50.247Z,3.60
2019-04-27T16:41:19.455Z,2.50
2019-04-27T16:43:49.047Z,2.17
2019-04-27T16:46:19.036Z,2.10
2019-04-27T16:48:49.281Z,2.53
2019-04-27T16:51:18.569Z,2.93
2019-04-27T16:53:48.227Z,2.83
2019-04-27T16:56:20.455Z,3.23
2019-04-27T16:58:56.260Z,2.57
2019-04-27T17:01:28.425Z,4.27
2019-04-27T17:03:59.370Z,5.33
2019-04-27T17:06:29.656Z,3.27
2019-04-27T17:09:05.696Z,1.63
2019-04-27T17:11:31.623Z,3.47
2019-04-27T17:14:08.740Z,3.00
2019-04-27T17:16:40.767Z,2.23
2019-04-27T17:19:12.469Z,3.97
2019-04-27T17:21:41.831Z,2.20
2019-04-27T17:24:11.034Z,1.30
2019-04-27T17:26:43.558Z,2.67
2019-04-27T17:29:16.654Z,1.43
2019-04-27T17:31:45.359Z,1.77
2019-04-27T17:34:14.591Z,2.30
2019-04-27T17:36:48.537Z,1.80
2019-04-27T17:39:14.728Z,1.63
2019-04-27T17:41:49.176Z,1.97
2019-04-27T17:44:19.180Z,2.00
2019-04-27T17:46:49.430Z,2.00
2019-04-27T17:49:18.920Z,2.03
2019-04-27T17:51:48.491Z,1.87
2019-04-27T17:54:18.267Z,2.00
2019-04-27T17:56:49.582Z,2.03
2019-04-27T17:59:20.765Z,2.03
2019-04-27T18:01:49.724Z,4.10
2019-04-27T18:04:19.079Z,2.67
2019-04-27T18:06:48.482Z,3.03
2019-04-27T18:09:18.892Z,2.27
2019-04-27T18:11:50.324Z,2.20
2019-04-27T18:14:19.510Z,3.30
2019-04-27T18:16:48.728Z,2.63
2019-04-27T18:19:19.563Z,2.30
2019-04-27T18:22:02.612Z,3.50
2019-04-27T18:24:33.440Z,3.73
2019-04-27T18:27:04.554Z,2.07
2019-04-27T18:29:33.808Z,3.53
2019-04-27T18:32:03.009Z,3.67
2019-04-27T18:34:32.241Z,4.20
2019-04-27T18:37:04.163Z,3.20
2019-04-27T18:39:32.381Z,2.80
2019-04-27T18:42:01.672Z,2.77
2019-04-27T18:44:31.970Z,1.70
2019-04-27T18:47:02.437Z,3.07
2019-04-27T18:49:39.629Z,3.43
2019-04-27T18:52:10.496Z,3.97
2019-04-27T18:54:41.875Z,3.03
2019-04-27T18:57:15.033Z,4.40
2019-04-27T18:59:43.511Z,2.20
2019-04-27T19:02:12.735Z,1.83
2019-04-27T19:04:41.945Z,5.70
2019-04-27T19:07:11.156Z,1.93
2019-04-27T19:09:40.372Z,4.00
2019-04-27T19:12:10.576Z,5.47
2019-04-27T19:14:39.844Z,1.80
2019-04-27T19:17:09.072Z,3.87
2019-04-27T19:19:38.351Z,3.30
2019-04-27T19:22:08.953Z,2.30
2019-04-27T19:24:38.583Z,2.40
2019-04-27T19:27:25.749Z,2.20
2019-04-27T19:29:56.639Z,3.40
2019-04-27T19:32:28.155Z,2.27
2019-04-27T19:34:59.239Z,2.98
2019-04-27T19:37:28.675Z,3.80
2019-04-27T19:39:58.375Z,3.53
2019-04-27T19:42:28.539Z,2.20
2019-04-27T19:44:57.987Z,3.53
2019-04-27T19:47:27.187Z,2.90
2019-04-27T19:49:56.426Z,5.20
2019-04-27T19:52:28.214Z,2.60
2019-04-27T19:54:58.525Z,2.20
2019-04-27T19:57:34.898Z,3.17
2019-04-27T20:00:01.160Z,3.80
2019-04-27T20:02:31.044Z,9.13
2019-04-27T20:05:04.859Z,12.10
2019-04-27T20:07:34.459Z,3.80
2019-04-27T20:10:05.903Z,2.50
2019-04-27T20:12:35.112Z,3.47
2019-04-27T20:15:06.687Z,4.77
2019-04-27T20:17:35.908Z,2.80
2019-04-27T20:20:05.882Z,2.83
2019-04-27T20:22:35.089Z,2.90
2019-04-27T20:25:05.575Z,6.57
2019-04-27T20:27:45.981Z,3.30
2019-04-27T20:30:08.585Z,3.57
2019-04-27T20:32:37.889Z,4.50
2019-04-27T20:35:07.112Z,3.87
2019-04-27T20:37:37.704Z,1.63
2019-04-27T20:40:07.776Z,3.80
2019-04-27T20:42:36.980Z,5.30
2019-04-27T20:45:06.728Z,2.13
2019-04-27T20:47:35.936Z,1.70
2019-04-27T20:50:06.484Z,3.13
2019-04-27T20:52:43.112Z,1.73
2019-04-27T20:55:13.315Z,2.90
2019-04-27T20:57:42.588Z,3.20
2019-04-27T21:00:13.679Z,4.23
2019-04-27T21:02:46.085Z,4.43
2019-04-27T21:05:16.943Z,3.57
2019-04-27T21:07:47.793Z,4.87
2019-04-27T21:10:17.180Z,4.70
2019-04-27T21:12:46.379Z,3.07
2019-04-27T21:15:15.604Z,4.87
2019-04-27T21:17:44.799Z,3.50
2019-04-27T21:20:14.027Z,3.10
2019-04-27T21:22:43.238Z,5.43
2019-04-27T21:25:13.891Z,7.17
2019-04-27T21:27:43.182Z,7.13
2019-04-27T21:30:12.460Z,4.13
2019-04-27T21:32:41.700Z,7.10
2019-04-27T21:35:11.361Z,4.67
2019-04-27T21:37:42.176Z,6.70
2019-04-27T21:40:18.795Z,4.50
2019-04-27T21:42:48.004Z,6.03
2019-04-27T21:45:18.636Z,4.40
2019-04-27T21:47:48.073Z,3.10
2019-04-27T21:50:20.611Z,5.43
2019-04-27T21:52:51.533Z,3.53
2019-04-27T21:55:28.424Z,7.23
2019-04-27T21:57:57.623Z,6.17
2019-04-27T22:00:40.116Z,5.87
2019-04-27T22:03:13.700Z,3.90
2019-04-27T22:05:42.968Z,5.17
2019-04-27T22:08:12.263Z,4.73
2019-04-27T22:10:41.487Z,3.43
2019-04-27T22:13:10.715Z,3.60
2019-04-27T22:15:41.543Z,4.53
2019-04-27T22:18:11.197Z,7.47
2019-04-27T22:20:42.718Z,6.20
2019-04-27T22:23:13.667Z,8.80
2019-04-27T22:25:42.872Z,10.50
2019-04-27T22:28:12.117Z,7.70
2019-04-27T22:30:41.308Z,4.43
2019-04-27T22:33:11.276Z,5.43
2019-04-27T22:35:41.467Z,3.67
2019-04-27T22:38:11.969Z,6.73
2019-04-27T22:40:50.851Z,7.07
2019-04-27T22:43:25.970Z,4.17
2019-04-27T22:45:55.935Z,6.10
2019-04-27T22:48:25.151Z,5.10
2019-04-27T22:50:54.348Z,4.33
2019-04-27T22:53:23.572Z,5.93
2019-04-27T22:56:11.166Z,6.33
2019-04-27T22:58:43.180Z,5.97
2019-04-27T23:01:22.529Z,5.83
2019-04-27T23:03:55.919Z,4.33
2019-04-27T23:06:25.148Z,7.80
2019-04-27T23:08:54.359Z,5.93
2019-04-27T23:11:23.563Z,4.17
2019-04-27T23:13:52.784Z,6.43
2019-04-27T23:16:23.620Z,4.43
2019-04-27T23:18:52.844Z,6.43
2019-04-27T23:21:22.040Z,3.17
2019-04-27T23:23:51.818Z,5.23
2019-04-27T23:26:21.232Z,3.90
2019-04-27T23:28:51.432Z,4.13
2019-04-27T23:31:34.686Z,10.60
2019-04-27T23:34:04.138Z,8.57
2019-04-27T23:36:33.343Z,5.20
2019-04-27T23:39:02.751Z,4.17
2019-04-27T23:41:33.044Z,5.27
2019-04-27T23:44:02.488Z,4.47
2019-04-27T23:46:32.057Z,5.07
2019-04-27T23:49:01.569Z,6.30
2019-04-27T23:51:44.804Z,4.57
2019-04-27T23:54:14.028Z,4.20
2019-04-27T23:56:43.319Z,6.10
2019-04-27T23:59:24.241Z,9.40
